METAR Formatted Surface Weather Observation
Issued by NWS Pago Pago

Home | Current Version | Previous Version | Text Only | Print | Product List | Glossary On
Versions: 1 2 3 4 5 6 7 8 9 10 11 12 13 14 15 16 17 18 19 20 21 22 23 24 25 26 27 28 29 30 31 32 33 34 35 36 37 38 39 40 41 42 43 44 45 46 47 48 49 50
000
SAZS31 NSTU 291156
MTRPPG
METAR NSTU 291150Z 31006KT 1SM SHRA SCT005 BKN012 OVC038 26/25 A2966
RMK SHRAB10 SLP046 60054 70112 8/8// T02630250 10272 20259 56005=


USA.gov is the U.S. government's official web portal to all federal, state and local government web resources and services.